Terminal Aerodrome Forecast
Issued by NWS Grand Forks, ND

Home | Current Version | Previous Version | Graphics & Text | Print | Product List | Glossary Off
Versions: 1 2 3 4 5 6 7 8 9 10 11 12 13 14 15 16 17 18 19 20 21

000
FTUS43 KFGF 051721
TAFFAR
TAF
KFAR 051721Z 0518/0618 01006KT P6SM BKN015
     FM052100 19010KT P6SM BKN050
     FM060000 21011KT P6SM VCTS BKN050CB
     FM060600 VRB05KT P6SM SCT010
     FM061600 27012KT P6SM SCT020=

USA.gov is the U.S. government's official web portal to all federal, state and local government web resources and services.